Time;durP1;ratioP1;P1;durP2;ratioP2;P2;SDS_P1;SDS_P2;PMS_P1;PMS_P2;Temp;Humidity;BMP_temperature;BMP_pressure;BME280_temperature;BME280_humidity;BME280_pressure;Samples;Min_cycle;Max_cycle;Signal;HPM_P1;HPM_P2
2022/04/17 00:00:36;;;;;;;14.80;9.50;;;;;;;;;;5069454;28;20219;-79
2022/04/17 00:03:02;;;;;;;13.00;9.33;;;;;;;;;;5034443;28;20218;-79
2022/04/17 00:05:32;;;;;;;12.93;9.57;;;;;;;;;;5074031;28;20269;-78
2022/04/17 00:07:57;;;;;;;13.43;9.57;;;;;;;;;;5080651;28;20230;-79
2022/04/17 00:10:27;;;;;;;12.77;9.20;;;;;;;;;;5086122;28;20215;-79
2022/04/17 00:12:53;;;;;;;11.73;9.50;;;;;;;;;;5062441;28;20218;-78
2022/04/17 00:15:21;;;;;;;13.20;9.20;;;;;;;;;;5071919;28;20302;-78
2022/04/17 00:17:47;;;;;;;12.13;9.53;;;;;;;;;;5069638;28;20223;-79
2022/04/17 00:20:14;;;;;;;14.50;9.63;;;;;;;;;;5062685;28;20218;-78
2022/04/17 00:22:42;;;;;;;12.23;9.83;;;;;;;;;;5070678;28;20215;-77
2022/04/17 00:25:08;;;;;;;14.33;9.73;;;;;;;;;;5068401;28;20242;-77
2022/04/17 00:27:34;;;;;;;11.70;8.97;;;;;;;;;;5069834;28;20229;-79
2022/04/17 00:30:00;;;;;;;12.77;9.70;;;;;;;;;;5069538;28;20231;-78
2022/04/17 00:32:31;;;;;;;14.40;9.77;;;;;;;;;;5068125;28;20260;-78
2022/04/17 00:34:57;;;;;;;14.93;10.77;;;;;;;;;;5052253;28;20497;-79
2022/04/17 00:37:22;;;;;;;13.63;10.00;;;;;;;;;;5073467;28;20223;-79
2022/04/17 00:39:51;;;;;;;15.77;9.97;;;;;;;;;;5069345;28;20215;-79
2022/04/17 00:42:19;;;;;;;13.40;9.87;;;;;;;;;;5046346;28;20223;-79
2022/04/17 00:44:44;;;;;;;13.43;9.40;;;;;;;;;;5043005;28;20219;-79
2022/04/17 00:47:15;;;;;;;12.90;10.30;;;;;;;;;;5068508;28;20212;-78
2022/04/17 00:49:45;;;;;;;14.07;9.37;;;;;;;;;;5058473;28;20227;-79
2022/04/17 00:52:13;;;;;;;12.63;9.67;;;;;;;;;;5049117;28;20223;-79
2022/04/17 00:54:47;;;;;;;14.07;10.00;;;;;;;;;;5051831;28;20246;-78
2022/04/17 00:57:15;;;;;;;13.57;10.23;;;;;;;;;;5052579;28;20704;-79
2022/04/17 00:59:43;;;;;;;13.03;9.50;;;;;;;;;;5062154;28;20222;-78
2022/04/17 01:02:09;;;;;;;14.13;9.93;;;;;;;;;;5077809;28;20233;-78
2022/04/17 01:04:35;;;;;;;13.57;9.70;;;;;;;;;;5082226;28;20216;-78
2022/04/17 01:07:03;;;;;;;14.10;10.40;;;;;;;;;;5076244;28;20219;-79
2022/04/17 01:09:29;;;;;;;12.13;9.93;;;;;;;;;;5068019;28;20234;-78
2022/04/17 01:11:55;;;;;;;15.83;10.13;;;;;;;;;;5063217;28;20281;-78
2022/04/17 01:14:27;;;;;;;13.93;9.93;;;;;;;;;;5043693;28;20669;-78
2022/04/17 01:16:52;;;;;;;12.67;9.77;;;;;;;;;;5062631;28;20263;-79
2022/04/17 01:19:18;;;;;;;11.90;9.40;;;;;;;;;;5066760;28;20230;-79
2022/04/17 01:21:46;;;;;;;13.97;9.83;;;;;;;;;;5068054;28;20218;-80
2022/04/17 01:27:00;;;;;;;11.27;8.83;;;;;;;;;;5071919;28;20305;-79
2022/04/17 01:29:34;;;;;;;17.37;12.30;;;;;;;;;;5035524;28;20243;-79
2022/04/17 01:32:00;;;;;;;12.67;9.37;;;;;;;;;;5064628;28;20234;-79
2022/04/17 01:34:26;;;;;;;13.13;10.20;;;;;;;;;;5022066;28;20218;-79
2022/04/17 01:36:51;;;;;;;14.37;10.50;;;;;;;;;;5055524;28;20207;-77
2022/04/17 01:39:18;;;;;;;12.30;10.00;;;;;;;;;;5047523;28;20222;-79
2022/04/17 01:41:43;;;;;;;14.10;10.00;;;;;;;;;;5076237;28;20215;-79
2022/04/17 01:44:16;;;;;;;14.03;9.97;;;;;;;;;;5054033;28;20226;-79
2022/04/17 01:46:41;;;;;;;15.50;10.17;;;;;;;;;;5071570;28;20252;-79
2022/04/17 01:49:07;;;;;;;13.47;9.87;;;;;;;;;;5051055;28;20274;-78
2022/04/17 01:51:38;;;;;;;13.53;10.10;;;;;;;;;;5053641;28;20227;-76
2022/04/17 01:54:09;;;;;;;12.00;9.80;;;;;;;;;;5074692;28;20211;-77
2022/04/17 01:56:35;;;;;;;15.43;10.53;;;;;;;;;;5070400;28;20219;-79
2022/04/17 01:59:01;;;;;;;15.03;10.53;;;;;;;;;;5065523;28;20222;-78
2022/04/17 02:01:27;;;;;;;14.77;10.83;;;;;;;;;;5053274;28;20269;-79
2022/04/17 02:03:57;;;;;;;14.17;10.50;;;;;;;;;;5024412;28;20207;-79
2022/04/17 02:06:22;;;;;;;12.97;10.63;;;;;;;;;;5055365;28;20226;-79
2022/04/17 02:08:51;;;;;;;13.87;10.97;;;;;;;;;;5068260;28;20568;-79
2022/04/17 02:11:20;;;;;;;13.40;10.67;;;;;;;;;;5059224;28;20238;-77
2022/04/17 02:13:45;;;;;;;14.70;11.13;;;;;;;;;;5048413;28;20284;-79
2022/04/17 02:16:11;;;;;;;13.03;10.47;;;;;;;;;;5066527;28;20219;-78
2022/04/17 02:18:37;;;;;;;14.27;10.70;;;;;;;;;;5048106;28;20261;-79
2022/04/17 02:21:02;;;;;;;14.17;10.13;;;;;;;;;;5065397;28;20219;-77
2022/04/17 02:23:30;;;;;;;13.23;10.40;;;;;;;;;;5069238;28;20222;-79
2022/04/17 02:25:58;;;;;;;13.90;10.50;;;;;;;;;;5046939;28;20301;-78
2022/04/17 02:28:24;;;;;;;15.13;11.13;;;;;;;;;;5045962;28;20294;-77
2022/04/17 02:30:49;;;;;;;14.27;10.47;;;;;;;;;;5051234;28;20702;-78
2022/04/17 02:33:15;;;;;;;15.03;11.53;;;;;;;;;;5066580;28;20288;-78
2022/04/17 02:35:43;;;;;;;15.73;11.70;;;;;;;;;;5069041;28;20221;-78
2022/04/17 02:38:09;;;;;;;13.47;10.50;;;;;;;;;;5058210;28;20264;-78
2022/04/17 02:40:39;;;;;;;15.43;11.27;;;;;;;;;;5049028;28;20211;-78
2022/04/17 02:43:07;;;;;;;13.47;11.13;;;;;;;;;;5045461;28;20218;-78
2022/04/17 02:45:37;;;;;;;15.90;11.40;;;;;;;;;;5065171;28;20231;-78
2022/04/17 02:48:05;;;;;;;13.10;10.70;;;;;;;;;;5052260;28;20215;-78
2022/04/17 02:50:33;;;;;;;12.57;10.70;;;;;;;;;;5065418;28;20223;-78
2022/04/17 02:52:59;;;;;;;14.87;11.37;;;;;;;;;;5028025;28;20284;-77
2022/04/17 02:55:24;;;;;;;16.20;11.93;;;;;;;;;;5065542;28;20238;-78
2022/04/17 02:57:50;;;;;;;15.70;11.17;;;;;;;;;;5062365;28;20297;-79
2022/04/17 03:00:16;;;;;;;13.00;10.43;;;;;;;;;;5072063;28;20305;-79
2022/04/17 03:05:39;;;;;;;15.83;11.00;;;;;;;;;;5051212;28;20210;-79
2022/04/17 03:08:10;;;;;;;13.67;10.40;;;;;;;;;;5024014;28;20249;-78
2022/04/17 03:10:36;;;;;;;14.87;10.67;;;;;;;;;;5065586;28;20595;-78
2022/04/17 03:13:04;;;;;;;14.90;10.40;;;;;;;;;;5049812;28;20211;-79
2022/04/17 03:15:33;;;;;;;12.13;9.80;;;;;;;;;;5067722;28;20646;-78
2022/04/17 03:17:59;;;;;;;11.43;9.43;;;;;;;;;;5053472;28;20273;-78
2022/04/17 03:20:25;;;;;;;15.37;10.90;;;;;;;;;;5065777;28;20701;-79
2022/04/17 03:22:51;;;;;;;13.90;10.67;;;;;;;;;;5051581;28;20218;-79
2022/04/17 03:25:19;;;;;;;15.43;10.27;;;;;;;;;;5062797;28;20600;-79
2022/04/17 03:27:49;;;;;;;12.30;9.80;;;;;;;;;;5070444;28;20790;-79
2022/04/17 03:30:16;;;;;;;13.57;9.80;;;;;;;;;;5065531;28;20293;-79
2022/04/17 03:32:45;;;;;;;12.97;9.77;;;;;;;;;;5067511;28;20673;-79
2022/04/17 03:35:11;;;;;;;13.80;10.20;;;;;;;;;;5071805;28;20227;-79
2022/04/17 03:37:42;;;;;;;12.30;9.97;;;;;;;;;;5057956;28;20217;-79
2022/04/17 03:40:08;;;;;;;13.50;9.83;;;;;;;;;;5068332;28;20250;-79
2022/04/17 03:42:35;;;;;;;14.37;10.43;;;;;;;;;;5046365;28;20215;-79
2022/04/17 03:45:01;;;;;;;14.33;10.80;;;;;;;;;;5067217;28;20751;-79
2022/04/17 03:47:26;;;;;;;15.93;10.60;;;;;;;;;;5070486;28;20242;-78
2022/04/17 03:49:52;;;;;;;12.37;10.43;;;;;;;;;;5064925;28;20264;-79
2022/04/17 03:52:17;;;;;;;14.40;10.50;;;;;;;;;;5050229;28;20301;-78
2022/04/17 03:54:43;;;;;;;11.03;9.47;;;;;;;;;;5072327;28;20237;-77
2022/04/17 03:57:08;;;;;;;13.17;9.47;;;;;;;;;;5078549;28;20286;-77
2022/04/17 03:59:34;;;;;;;10.80;9.17;;;;;;;;;;5076088;28;20250;-77
2022/04/17 04:02:02;;;;;;;12.70;9.97;;;;;;;;;;5073203;28;20685;-76
2022/04/17 04:04:28;;;;;;;12.77;9.77;;;;;;;;;;5067620;28;20218;-77
2022/04/17 04:06:53;;;;;;;12.73;9.70;;;;;;;;;;5071881;28;20211;-78
2022/04/17 04:09:19;;;;;;;12.47;9.13;;;;;;;;;;5078475;28;20251;-77
2022/04/17 04:11:47;;;;;;;11.30;9.10;;;;;;;;;;5083378;28;20226;-78
2022/04/17 04:14:12;;;;;;;10.87;9.17;;;;;;;;;;5075475;28;20248;-77
2022/04/17 04:16:40;;;;;;;10.17;9.00;;;;;;;;;;5072109;28;20223;-78
2022/04/17 04:19:06;;;;;;;10.13;8.73;;;;;;;;;;5073242;28;20269;-79
2022/04/17 04:21:31;;;;;;;12.03;8.33;;;;;;;;;;5073273;28;20326;-78
2022/04/17 04:23:57;;;;;;;11.97;8.53;;;;;;;;;;5068639;28;20218;-78
2022/04/17 04:26:22;;;;;;;10.47;8.40;;;;;;;;;;5070912;28;20344;-78
2022/04/17 04:28:48;;;;;;;10.40;8.50;;;;;;;;;;5073637;28;20229;-79
2022/04/17 04:31:18;;;;;;;11.83;8.60;;;;;;;;;;5051313;28;20290;-78
2022/04/17 04:33:44;;;;;;;9.20;8.07;;;;;;;;;;5073021;28;20653;-78
2022/04/17 04:36:13;;;;;;;10.23;8.13;;;;;;;;;;5075682;28;20724;-78
2022/04/17 04:38:43;;;;;;;11.67;8.13;;;;;;;;;;5064100;28;20222;-80
2022/04/17 04:41:11;;;;;;;10.40;7.67;;;;;;;;;;5068430;28;20234;-78
2022/04/17 04:43:36;;;;;;;8.53;7.27;;;;;;;;;;5075021;28;20226;-78
2022/04/17 04:46:07;;;;;;;11.17;7.63;;;;;;;;;;5077260;28;20313;-77
2022/04/17 04:51:26;;;;;;;10.10;8.00;;;;;;;;;;5074846;28;20322;-78
2022/04/17 04:53:52;;;;;;;11.73;7.47;;;;;;;;;;5071110;28;20215;-76
2022/04/17 04:56:19;;;;;;;8.03;6.97;;;;;;;;;;5058106;28;20236;-78
2022/04/17 04:58:47;;;;;;;10.03;6.80;;;;;;;;;;5069062;28;20287;-80
2022/04/17 05:01:13;;;;;;;10.43;7.30;;;;;;;;;;5064890;28;20222;-79
2022/04/17 05:03:39;;;;;;;9.40;7.30;;;;;;;;;;5055253;28;20211;-80
2022/04/17 05:06:04;;;;;;;12.63;7.70;;;;;;;;;;5059717;28;20230;-80
2022/04/17 05:08:32;;;;;;;8.47;6.40;;;;;;;;;;5067421;28;20310;-78
2022/04/17 05:11:02;;;;;;;11.00;7.30;;;;;;;;;;5071405;28;20715;-79
2022/04/17 05:13:28;;;;;;;10.33;7.20;;;;;;;;;;5068077;28;20696;-79
2022/04/17 05:15:53;;;;;;;11.33;7.33;;;;;;;;;;5068804;28;20214;-79
2022/04/17 05:18:19;;;;;;;11.10;7.27;;;;;;;;;;5067218;28;20591;-78
2022/04/17 05:20:44;;;;;;;9.57;7.10;;;;;;;;;;5070174;28;20260;-79
2022/04/17 05:23:22;;;;;;;8.37;6.87;;;;;;;;;;5063828;28;20272;-79
2022/04/17 05:25:50;;;;;;;8.70;6.90;;;;;;;;;;5062485;28;20716;-79
2022/04/17 05:28:15;;;;;;;8.33;7.00;;;;;;;;;;5068578;28;20219;-78
2022/04/17 05:30:41;;;;;;;7.80;6.60;;;;;;;;;;5066572;28;20279;-78
2022/04/17 05:33:07;;;;;;;8.60;6.70;;;;;;;;;;5075280;28;20225;-78
2022/04/17 05:35:32;;;;;;;8.73;7.00;;;;;;;;;;5056751;28;20218;-79
2022/04/17 05:37:58;;;;;;;9.10;6.50;;;;;;;;;;5063063;28;20323;-79
2022/04/17 05:40:23;;;;;;;9.00;6.40;;;;;;;;;;5066344;28;20254;-79
2022/04/17 05:42:49;;;;;;;6.40;5.50;;;;;;;;;;5065281;28;20234;-78
2022/04/17 05:45:17;;;;;;;7.10;5.30;;;;;;;;;;5069912;28;20233;-78
2022/04/17 05:47:43;;;;;;;7.27;5.73;;;;;;;;;;5071586;28;20237;-79
2022/04/17 05:50:08;;;;;;;7.50;5.20;;;;;;;;;;5052719;28;20864;-79
2022/04/17 05:52:34;;;;;;;7.27;4.87;;;;;;;;;;5068378;28;20244;-79
2022/04/17 05:55:02;;;;;;;7.30;5.23;;;;;;;;;;5041861;28;20298;-79
2022/04/17 05:57:27;;;;;;;7.70;5.00;;;;;;;;;;5079556;28;20226;-79
2022/04/17 05:59:53;;;;;;;6.90;4.77;;;;;;;;;;5070925;28;20283;-78
2022/04/17 06:02:18;;;;;;;5.60;4.33;;;;;;;;;;5064721;28;20353;-77
2022/04/17 06:04:44;;;;;;;5.90;4.50;;;;;;;;;;5066864;28;20744;-78
2022/04/17 06:07:12;;;;;;;6.07;4.60;;;;;;;;;;5068503;28;20235;-79
2022/04/17 06:09:38;;;;;;;5.30;4.23;;;;;;;;;;5069819;28;20278;-78
2022/04/17 06:12:03;;;;;;;5.10;4.07;;;;;;;;;;5065898;28;20241;-78
2022/04/17 06:14:29;;;;;;;5.10;4.40;;;;;;;;;;5066690;28;20219;-79
2022/04/17 06:16:54;;;;;;;4.77;3.60;;;;;;;;;;5064005;28;20306;-78
2022/04/17 06:19:22;;;;;;;5.03;3.90;;;;;;;;;;5074089;28;20708;-77
2022/04/17 06:21:47;;;;;;;4.50;3.90;;;;;;;;;;5067035;28;20253;-78
2022/04/17 06:24:13;;;;;;;4.17;3.50;;;;;;;;;;5078563;28;20501;-77
2022/04/17 06:26:39;;;;;;;3.30;3.00;;;;;;;;;;5076354;28;20286;-77
2022/04/17 06:29:08;;;;;;;5.53;3.73;;;;;;;;;;5081447;28;20287;-78
2022/04/17 06:31:34;;;;;;;4.97;3.10;;;;;;;;;;5073980;28;20286;-79
2022/04/17 06:33:59;;;;;;;4.13;2.87;;;;;;;;;;5077270;28;20241;-79
2022/04/17 06:36:25;;;;;;;3.40;2.80;;;;;;;;;;5068325;28;20759;-78
2022/04/17 06:38:50;;;;;;;3.53;2.40;;;;;;;;;;5064371;28;20242;-79
2022/04/17 06:41:16;;;;;;;3.70;2.60;;;;;;;;;;5066968;28;20226;-79
2022/04/17 06:43:41;;;;;;;3.57;2.30;;;;;;;;;;5072657;28;20252;-79
2022/04/17 06:46:07;;;;;;;4.43;1.80;;;;;;;;;;5075801;28;20285;-78
2022/04/17 06:48:32;;;;;;;3.10;2.30;;;;;;;;;;5075361;28;20366;-79
2022/04/17 06:50:58;;;;;;;3.43;2.10;;;;;;;;;;5075358;28;20221;-78
2022/04/17 06:53:26;;;;;;;2.67;2.03;;;;;;;;;;5059652;28;20298;-79
2022/04/17 06:55:54;;;;;;;3.20;2.30;;;;;;;;;;5028258;28;20681;-78
2022/04/17 06:58:20;;;;;;;2.23;1.93;;;;;;;;;;5069310;28;20225;-78
2022/04/17 07:00:51;;;;;;;3.27;2.10;;;;;;;;;;5069574;28;20215;-78
2022/04/17 07:03:17;;;;;;;3.47;2.33;;;;;;;;;;5066918;28;20684;-78
2022/04/17 07:05:43;;;;;;;2.97;2.20;;;;;;;;;;5068363;28;20229;-79
2022/04/17 07:08:08;;;;;;;3.23;1.90;;;;;;;;;;5065438;28;20214;-78
2022/04/17 07:10:37;;;;;;;2.47;1.90;;;;;;;;;;5062149;28;20322;-79
2022/04/17 07:13:04;;;;;;;2.50;1.93;;;;;;;;;;5067713;28;20233;-77
2022/04/17 07:15:34;;;;;;;2.67;1.70;;;;;;;;;;5075857;28;20214;-78
2022/04/17 07:17:59;;;;;;;2.47;1.90;;;;;;;;;;5069054;28;20685;-77
2022/04/17 07:20:24;;;;;;;2.03;1.80;;;;;;;;;;5064224;28;20325;-79
2022/04/17 07:22:50;;;;;;;3.43;1.73;;;;;;;;;;5067761;28;20305;-78
2022/04/17 07:25:16;;;;;;;2.50;1.47;;;;;;;;;;5069478;28;20246;-77
2022/04/17 07:27:45;;;;;;;2.03;1.70;;;;;;;;;;5070407;28;20725;-78
2022/04/17 07:30:15;;;;;;;2.67;1.80;;;;;;;;;;5076279;28;20219;-78
2022/04/17 07:32:45;;;;;;;4.30;1.60;;;;;;;;;;5051742;28;20238;-79
2022/04/17 07:35:11;;;;;;;1.70;1.60;;;;;;;;;;5071583;28;20223;-79
2022/04/17 07:37:36;;;;;;;3.03;1.53;;;;;;;;;;5073099;28;20269;-78
2022/04/17 07:40:10;;;;;;;2.63;1.53;;;;;;;;;;5044179;28;20250;-79
2022/04/17 07:42:36;;;;;;;3.37;1.60;;;;;;;;;;5061408;28;20223;-79
2022/04/17 07:45:04;;;;;;;3.07;1.70;;;;;;;;;;5061968;28;20315;-78
2022/04/17 07:47:32;;;;;;;1.73;1.60;;;;;;;;;;5074673;28;20671;-79
2022/04/17 07:49:59;;;;;;;2.60;1.50;;;;;;;;;;5069132;28;20223;-78
2022/04/17 07:52:30;;;;;;;1.97;1.50;;;;;;;;;;5069640;28;20244;-79
2022/04/17 07:54:55;;;;;;;2.57;1.50;;;;;;;;;;5071193;28;20219;-78
2022/04/17 07:57:21;;;;;;;2.20;1.53;;;;;;;;;;5069306;28;20275;-79
2022/04/17 07:59:50;;;;;;;1.43;1.33;;;;;;;;;;5074489;28;20315;-79
2022/04/17 08:02:22;;;;;;;2.20;1.70;;;;;;;;;;5076303;28;20313;-78
2022/04/17 08:04:51;;;;;;;1.83;1.40;;;;;;;;;;5077834;28;20219;-79
2022/04/17 08:07:18;;;;;;;2.13;1.23;;;;;;;;;;5058889;28;20282;-78
2022/04/17 08:09:44;;;;;;;1.40;1.30;;;;;;;;;;5075831;28;20224;-78
2022/04/17 08:12:09;;;;;;;2.00;1.27;;;;;;;;;;5062483;28;20235;-79
2022/04/17 08:14:35;;;;;;;1.53;1.40;;;;;;;;;;5068834;28;20290;-77
2022/04/17 08:17:00;;;;;;;2.77;1.50;;;;;;;;;;5074544;28;20215;-76
2022/04/17 08:19:26;;;;;;;2.07;1.20;;;;;;;;;;5079400;28;20241;-77
2022/04/17 08:21:51;;;;;;;2.17;1.20;;;;;;;;;;5076406;28;20219;-77
2022/04/17 08:24:21;;;;;;;1.93;1.23;;;;;;;;;;5075703;28;20238;-78
2022/04/17 08:26:47;;;;;;;1.80;1.00;;;;;;;;;;5072825;28;20237;-79
2022/04/17 08:29:12;;;;;;;2.10;1.20;;;;;;;;;;5037669;28;20748;-79
2022/04/17 08:31:38;;;;;;;1.83;1.47;;;;;;;;;;5069033;28;20246;-78
2022/04/17 08:34:03;;;;;;;1.70;1.33;;;;;;;;;;5083741;28;20266;-75
2022/04/17 08:36:29;;;;;;;1.80;1.20;;;;;;;;;;5083554;28;20723;-79
2022/04/17 08:38:56;;;;;;;2.70;1.43;;;;;;;;;;5084784;28;20224;-79
2022/04/17 08:41:22;;;;;;;1.63;1.40;;;;;;;;;;5076432;28;20238;-78
2022/04/17 08:43:47;;;;;;;2.67;1.30;;;;;;;;;;5062016;28;20223;-78
2022/04/17 08:46:12;;;;;;;1.67;1.17;;;;;;;;;;5077262;28;20223;-77
2022/04/17 08:48:38;;;;;;;1.30;1.20;;;;;;;;;;5065444;28;20219;-79
2022/04/17 08:51:06;;;;;;;1.53;1.20;;;;;;;;;;5076582;28;20269;-78
2022/04/17 08:53:34;;;;;;;1.30;1.20;;;;;;;;;;5060922;28;20225;-78
2022/04/17 08:56:00;;;;;;;1.47;1.23;;;;;;;;;;5085814;28;20229;-79
2022/04/17 08:58:26;;;;;;;1.30;1.10;;;;;;;;;;5083429;28;20211;-78
2022/04/17 09:00:52;;;;;;;2.13;0.97;;;;;;;;;;5076573;28;20215;-80
2022/04/17 09:03:17;;;;;;;1.13;0.90;;;;;;;;;;5076866;28;20214;-77
2022/04/17 09:05:45;;;;;;;1.77;0.70;;;;;;;;;;5070077;28;20246;-79
2022/04/17 09:08:21;;;;;;;1.33;0.80;;;;;;;;;;5059635;28;20340;-80
2022/04/17 09:10:58;;;;;;;0.87;0.83;;;;;;;;;;5064365;28;20223;-79
2022/04/17 09:13:35;;;;;;;0.87;0.73;;;;;;;;;;5068731;28;20318;-79
2022/04/17 09:16:06;;;;;;;2.23;0.80;;;;;;;;;;5070815;28;20700;-78
2022/04/17 09:18:35;;;;;;;1.87;1.00;;;;;;;;;;5073699;28;20215;-77
2022/04/17 09:21:03;;;;;;;1.40;0.77;;;;;;;;;;5063528;28;20223;-77
2022/04/17 09:23:36;;;;;;;1.83;1.10;;;;;;;;;;5058235;28;20235;-79
2022/04/17 09:26:02;;;;;;;1.63;0.97;;;;;;;;;;5061026;28;20294;-79
2022/04/17 09:28:32;;;;;;;1.90;0.90;;;;;;;;;;5070898;28;20214;-78
2022/04/17 09:31:02;;;;;;;1.67;0.87;;;;;;;;;;5039769;28;20215;-79
2022/04/17 09:33:41;;;;;;;1.10;1.00;;;;;;;;;;5046412;28;21049;-79
2022/04/17 09:36:12;;;;;;;0.80;0.80;;;;;;;;;;5070897;28;20285;-76
2022/04/17 09:38:40;;;;;;;0.73;0.70;;;;;;;;;;5072254;28;20317;-79
2022/04/17 09:41:09;;;;;;;0.80;0.80;;;;;;;;;;5069215;28;20234;-77
2022/04/17 09:43:37;;;;;;;0.93;0.70;;;;;;;;;;5069507;28;20248;-78
2022/04/17 09:46:09;;;;;;;1.13;0.73;;;;;;;;;;5062112;28;20229;-80
2022/04/17 09:48:36;;;;;;;0.70;0.63;;;;;;;;;;5059520;28;20294;-78
2022/04/17 09:51:31;;;;;;;1.10;0.70;;;;;;;;;;5027893;28;20219;-79
2022/04/17 09:54:01;;;;;;;0.83;0.70;;;;;;;;;;5070447;28;20282;-80
2022/04/17 09:56:37;;;;;;;1.27;0.80;;;;;;;;;;5075307;28;20253;-78
2022/04/17 09:59:24;;;;;;;1.53;0.60;;;;;;;;;;5072716;28;20268;-79
2022/04/17 10:01:56;;;;;;;0.87;0.70;;;;;;;;;;5064547;28;20313;-79
2022/04/17 10:04:26;;;;;;;1.90;0.87;;;;;;;;;;5066135;28;20663;-79
2022/04/17 10:06:55;;;;;;;1.63;0.70;;;;;;;;;;5067290;28;20237;-79
2022/04/17 10:09:21;;;;;;;1.83;0.80;;;;;;;;;;5070587;28;20718;-79
2022/04/17 10:11:51;;;;;;;1.17;0.60;;;;;;;;;;5076985;28;20219;-79
2022/04/17 10:14:16;;;;;;;0.63;0.60;;;;;;;;;;5073454;28;20226;-79
2022/04/17 10:16:43;;;;;;;0.73;0.70;;;;;;;;;;5059291;28;20226;-79
2022/04/17 10:19:19;;;;;;;1.07;0.70;;;;;;;;;;5059044;28;20246;-79
2022/04/17 10:21:48;;;;;;;0.80;0.80;;;;;;;;;;5060763;28;20229;-78
2022/04/17 10:24:17;;;;;;;0.80;0.80;;;;;;;;;;5059794;28;20219;-78
2022/04/17 10:26:47;;;;;;;1.40;0.97;;;;;;;;;;5067113;28;20227;-78
2022/04/17 10:29:31;;;;;;;0.70;0.70;;;;;;;;;;5079055;28;20242;-77
2022/04/17 10:32:18;;;;;;;1.17;0.90;;;;;;;;;;5072216;28;20313;-80
2022/04/17 10:35:10;;;;;;;1.30;0.80;;;;;;;;;;5064629;28;20218;-80
2022/04/17 10:38:02;;;;;;;0.80;0.77;;;;;;;;;;5072173;28;20215;-79
2022/04/17 10:40:28;;;;;;;0.90;0.80;;;;;;;;;;5072028;28;20274;-79
2022/04/17 10:42:55;;;;;;;0.88;0.70;;;;;;;;;;5056628;28;20223;-78
2022/04/17 10:45:34;;;;;;;1.13;1.02;;;;;;;;;;5061765;28;20235;-79
2022/04/17 10:48:05;;;;;;;1.70;0.90;;;;;;;;;;5042528;28;20278;-79
2022/04/17 10:51:03;;;;;;;0.80;0.80;;;;;;;;;;5074340;28;20226;-78
2022/04/17 10:53:29;;;;;;;1.33;1.10;;;;;;;;;;5063487;28;20226;-76
2022/04/17 10:56:10;;;;;;;2.23;1.00;;;;;;;;;;5075850;28;20225;-79
2022/04/17 10:58:50;;;;;;;1.10;0.87;;;;;;;;;;5076650;28;20723;-77
2022/04/17 11:01:18;;;;;;;1.27;0.90;;;;;;;;;;5072688;28;20229;-77
2022/04/17 11:03:52;;;;;;;0.83;0.83;;;;;;;;;;5074612;28;20222;-78
2022/04/17 11:06:33;;;;;;;1.63;0.85;;;;;;;;;;5068352;28;20605;-79
2022/04/17 11:09:04;;;;;;;2.13;1.10;;;;;;;;;;5057770;28;20247;-79
2022/04/17 11:11:35;;;;;;;1.20;0.80;;;;;;;;;;5058443;28;20238;-78
2022/04/17 11:14:13;;;;;;;0.88;0.88;;;;;;;;;;5058203;28;20227;-78
2022/04/17 11:16:39;;;;;;;0.80;0.80;;;;;;;;;;5062703;28;20222;-78
2022/04/17 11:19:06;;;;;;;0.80;0.80;;;;;;;;;;5063137;28;20310;-79
2022/04/17 11:21:39;;;;;;;0.85;0.80;;;;;;;;;;5065849;28;20226;-78
2022/04/17 11:24:05;;;;;;;1.33;1.10;;;;;;;;;;5065642;28;20223;-78
2022/04/17 11:26:52;;;;;;;1.20;0.90;;;;;;;;;;5067885;28;20241;-79
2022/04/17 11:29:39;;;;;;;1.40;1.30;;;;;;;;;;5059748;28;20231;-80
2022/04/17 11:32:17;;;;;;;1.17;0.90;;;;;;;;;;5069526;28;20735;-79
2022/04/17 11:34:43;;;;;;;1.10;1.00;;;;;;;;;;5075020;28;20234;-79
2022/04/17 11:37:09;;;;;;;1.88;0.95;;;;;;;;;;5061676;28;20318;-79
2022/04/17 11:39:34;;;;;;;0.93;0.80;;;;;;;;;;5057596;28;20242;-79
2022/04/17 11:42:02;;;;;;;0.93;0.80;;;;;;;;;;5065030;28;20230;-79
2022/04/17 11:44:28;;;;;;;1.13;1.00;;;;;;;;;;5066795;28;20218;-78
2022/04/17 11:46:53;;;;;;;1.60;0.80;;;;;;;;;;5064821;28;20236;-78
2022/04/17 11:49:21;;;;;;;1.45;0.82;;;;;;;;;;5048190;28;20453;-78
2022/04/17 11:51:47;;;;;;;1.17;1.08;;;;;;;;;;5064133;28;20235;-80
2022/04/17 11:54:29;;;;;;;1.67;1.10;;;;;;;;;;5072092;28;20316;-79
2022/04/17 11:57:00;;;;;;;1.40;0.85;;;;;;;;;;5073785;28;20751;-79
2022/04/17 11:59:28;;;;;;;1.48;0.88;;;;;;;;;;5062239;28;20219;-78
2022/04/17 12:02:09;;;;;;;1.98;0.82;;;;;;;;;;5060358;28;20215;-78
2022/04/17 12:04:42;;;;;;;1.40;0.95;;;;;;;;;;5061323;28;20317;-78
2022/04/17 12:07:11;;;;;;;2.40;1.02;;;;;;;;;;5064876;28;20227;-79
2022/04/17 12:09:37;;;;;;;1.05;0.90;;;;;;;;;;5063693;28;20567;-78
2022/04/17 12:12:08;;;;;;;2.10;0.90;;;;;;;;;;5069412;28;20305;-79
2022/04/17 12:14:34;;;;;;;2.55;1.02;;;;;;;;;;5069063;28;20225;-79
2022/04/17 12:17:02;;;;;;;1.65;1.02;;;;;;;;;;5073488;28;20216;-78
2022/04/17 12:19:29;;;;;;;1.85;1.00;;;;;;;;;;5073792;28;20227;-77
2022/04/17 12:21:54;;;;;;;1.25;0.98;;;;;;;;;;5073566;28;20219;-79
2022/04/17 12:24:22;;;;;;;1.00;0.73;;;;;;;;;;5060299;28;20219;-78
2022/04/17 12:26:48;;;;;;;1.08;0.95;;;;;;;;;;5059567;28;20215;-78
2022/04/17 12:29:14;;;;;;;1.85;1.00;;;;;;;;;;5059443;28;20259;-79
2022/04/17 12:31:42;;;;;;;1.08;0.75;;;;;;;;;;5062143;28;20258;-78
2022/04/17 12:34:19;;;;;;;1.00;0.80;;;;;;;;;;5066367;28;20718;-79
2022/04/17 12:36:49;;;;;;;2.20;1.30;;;;;;;;;;5054189;28;20248;-78
2022/04/17 12:39:15;;;;;;;2.00;1.20;;;;;;;;;;5067372;28;20234;-79
2022/04/17 12:41:42;;;;;;;1.33;0.80;;;;;;;;;;5051956;28;20211;-79
2022/04/17 12:44:10;;;;;;;1.20;0.80;;;;;;;;;;5064951;28;20219;-79
2022/04/17 12:46:42;;;;;;;2.55;1.00;;;;;;;;;;5067979;28;20610;-77
2022/04/17 12:49:15;;;;;;;1.52;1.00;;;;;;;;;;5063711;28;20239;-79
2022/04/17 12:51:56;;;;;;;1.38;1.10;;;;;;;;;;5060596;28;20227;-79
2022/04/17 12:54:32;;;;;;;1.38;0.80;;;;;;;;;;5044804;28;20230;-78
2022/04/17 12:57:05;;;;;;;1.92;1.17;;;;;;;;;;5076211;28;20226;-77
2022/04/17 12:59:50;;;;;;;1.67;1.02;;;;;;;;;;5077239;28;20223;-78
2022/04/17 13:02:27;;;;;;;1.10;1.00;;;;;;;;;;5076912;28;20219;-78
2022/04/17 13:04:56;;;;;;;1.15;1.00;;;;;;;;;;5075342;28;20219;-79
2022/04/17 13:07:22;;;;;;;1.23;0.95;;;;;;;;;;5052978;28;20235;-79
2022/04/17 13:10:01;;;;;;;1.67;1.02;;;;;;;;;;5053866;28;20231;-79
2022/04/17 13:12:36;;;;;;;1.85;1.27;;;;;;;;;;5068973;28;20249;-80
2022/04/17 13:15:06;;;;;;;1.00;0.80;;;;;;;;;;5053600;28;20305;-79
2022/04/17 13:17:45;;;;;;;1.67;0.90;;;;;;;;;;5067818;28;20227;-78
2022/04/17 13:20:15;;;;;;;1.23;0.93;;;;;;;;;;5067009;28;20707;-78
2022/04/17 13:22:42;;;;;;;0.80;0.75;;;;;;;;;;5050465;28;20218;-78
2022/04/17 13:25:11;;;;;;;1.15;1.02;;;;;;;;;;5061660;28;20219;-78
2022/04/17 13:27:37;;;;;;;1.25;1.15;;;;;;;;;;5066153;28;20288;-79
2022/04/17 13:30:06;;;;;;;1.10;0.90;;;;;;;;;;5058490;28;20223;-79
2022/04/17 13:32:37;;;;;;;1.17;0.90;;;;;;;;;;5069129;28;20232;-79
2022/04/17 13:35:06;;;;;;;0.98;0.93;;;;;;;;;;5064520;28;20341;-80
2022/04/17 13:40:17;;;;;;;0.93;0.93;;;;;;;;;;5056331;28;20223;-79
2022/04/17 13:42:43;;;;;;;1.63;0.80;;;;;;;;;;5069584;28;20231;-79
2022/04/17 13:45:14;;;;;;;0.80;0.80;;;;;;;;;;5072205;28;20223;-77
2022/04/17 13:47:42;;;;;;;1.15;0.80;;;;;;;;;;5063610;28;20701;-75
2022/04/17 13:50:10;;;;;;;0.82;0.70;;;;;;;;;;5077190;28;20219;-77
2022/04/17 13:52:38;;;;;;;1.00;0.85;;;;;;;;;;5057602;28;20684;-77
2022/04/17 13:55:05;;;;;;;1.63;0.70;;;;;;;;;;5077841;28;20657;-77
2022/04/17 13:57:33;;;;;;;1.70;0.98;;;;;;;;;;5075832;28;20231;-77
2022/04/17 13:59:58;;;;;;;1.60;0.90;;;;;;;;;;5074176;28;20235;-78
2022/04/17 14:02:27;;;;;;;0.98;0.90;;;;;;;;;;5075334;28;20244;-76
2022/04/17 14:04:55;;;;;;;2.10;0.93;;;;;;;;;;5068390;28;20285;-78
2022/04/17 14:07:20;;;;;;;0.90;0.85;;;;;;;;;;5064672;28;20230;-78
2022/04/17 14:09:46;;;;;;;1.17;0.73;;;;;;;;;;5065721;28;20310;-77
2022/04/17 14:12:12;;;;;;;2.08;0.88;;;;;;;;;;5063733;28;20299;-79
2022/04/17 14:14:41;;;;;;;0.70;0.70;;;;;;;;;;5065351;28;20298;-77
2022/04/17 14:17:09;;;;;;;0.93;0.80;;;;;;;;;;5056153;28;20219;-76
2022/04/17 14:19:35;;;;;;;0.60;0.60;;;;;;;;;;5070754;28;20250;-78
2022/04/17 14:22:00;;;;;;;1.33;0.80;;;;;;;;;;5070612;28;20221;-77
2022/04/17 14:24:26;;;;;;;0.85;0.80;;;;;;;;;;5074954;28;20276;-77
2022/04/17 14:26:56;;;;;;;1.70;0.77;;;;;;;;;;5077299;28;20239;-78
2022/04/17 14:29:24;;;;;;;1.77;0.90;;;;;;;;;;5074584;28;20283;-77
2022/04/17 14:31:52;;;;;;;1.00;0.80;;;;;;;;;;5071451;28;20227;-80
2022/04/17 14:34:19;;;;;;;1.48;0.80;;;;;;;;;;5076742;28;20226;-79
2022/04/17 14:36:44;;;;;;;1.00;0.90;;;;;;;;;;5080308;28;20234;-78
2022/04/17 14:39:10;;;;;;;0.80;0.77;;;;;;;;;;5077900;28;20239;-77
2022/04/17 14:41:37;;;;;;;1.25;0.90;;;;;;;;;;5070630;28;20223;-77
2022/04/17 14:44:05;;;;;;;1.63;1.05;;;;;;;;;;5070408;28;20234;-78
2022/04/17 14:46:33;;;;;;;0.85;0.82;;;;;;;;;;5079046;28;20724;-78
2022/04/17 14:49:01;;;;;;;2.17;0.77;;;;;;;;;;5080431;28;20246;-79
2022/04/17 14:51:26;;;;;;;1.80;1.00;;;;;;;;;;5066700;28;20303;-79
2022/04/17 14:53:54;;;;;;;0.90;0.90;;;;;;;;;;5066447;28;20635;-81